createdAt,value
2022-10-23T00:00:36.096Z,18.77
2022-10-23T00:03:39.026Z,15.90
2022-10-23T00:06:43.111Z,17.85
2022-10-23T00:09:45.799Z,21.95
2022-10-23T00:12:49.131Z,16.85
2022-10-23T00:18:59.280Z,25.37
2022-10-23T00:22:01.931Z,19.73
2022-10-23T00:25:08.644Z,20.33
2022-10-23T00:28:11.322Z,18.85
2022-10-23T00:31:14.375Z,18.30
2022-10-23T00:34:17.176Z,14.50
2022-10-23T00:37:19.706Z,17.42
2022-10-23T00:40:22.534Z,14.18
2022-10-23T00:43:27.595Z,15.68
2022-10-23T00:46:31.495Z,15.05
2022-10-23T00:49:34.613Z,17.62
2022-10-23T00:52:44.506Z,17.35
2022-10-23T00:55:49.053Z,17.05
2022-10-23T00:58:51.824Z,18.62
2022-10-23T01:01:54.746Z,15.60
2022-10-23T01:04:57.642Z,18.75
2022-10-23T01:08:12.443Z,16.25
2022-10-23T01:11:22.893Z,18.48
2022-10-23T01:15:03.478Z,17.10
2022-10-23T01:18:12.410Z,18.23
2022-10-23T01:21:32.812Z,16.45
2022-10-23T01:24:48.046Z,13.90
2022-10-23T01:28:05.220Z,14.85
2022-10-23T01:31:14.373Z,16.62
2022-10-23T01:34:22.756Z,14.85
2022-10-23T01:37:45.436Z,18.80
2022-10-23T01:41:02.173Z,15.65
2022-10-23T01:44:11.135Z,16.30
2022-10-23T01:50:22.601Z,13.68
2022-10-23T01:56:38.679Z,15.95
2022-10-23T01:59:47.155Z,15.45
2022-10-23T02:02:51.220Z,14.00
2022-10-23T02:05:54.358Z,18.50
2022-10-23T02:08:57.248Z,15.90
2022-10-23T02:12:24.258Z,16.20
2022-10-23T02:15:33.029Z,15.57
2022-10-23T02:18:57.617Z,19.37
2022-10-23T02:22:05.361Z,14.30
2022-10-23T02:25:08.121Z,19.67
2022-10-23T02:28:16.482Z,21.35
2022-10-23T02:31:22.375Z,18.15
2022-10-23T02:34:25.028Z,16.48
2022-10-23T02:37:27.857Z,14.43
2022-10-23T02:40:39.015Z,18.67
2022-10-23T02:43:56.125Z,16.15
2022-10-23T02:47:23.510Z,20.05
2022-10-23T02:50:48.692Z,15.63
2022-10-23T02:54:14.891Z,14.85
2022-10-23T02:57:26.495Z,18.12
2022-10-23T03:00:31.112Z,13.38
2022-10-23T03:03:38.204Z,16.35
2022-10-23T03:06:41.000Z,14.15
2022-10-23T03:09:49.545Z,18.45
2022-10-23T03:12:52.116Z,14.77
2022-10-23T03:15:55.059Z,15.02
2022-10-23T03:18:57.650Z,15.82
2022-10-23T03:22:00.355Z,18.05
2022-10-23T03:25:03.168Z,15.50
2022-10-23T03:28:06.740Z,18.00
2022-10-23T03:31:09.886Z,18.92
2022-10-23T03:34:15.011Z,16.17
2022-10-23T03:37:17.676Z,15.35
2022-10-23T03:40:20.417Z,14.68
2022-10-23T03:43:22.869Z,15.30
2022-10-23T03:46:25.651Z,14.93
2022-10-23T03:49:28.360Z,17.62
2022-10-23T03:52:37.569Z,16.75
2022-10-23T03:55:39.995Z,13.45
2022-10-23T03:58:42.783Z,14.45
2022-10-23T04:01:46.511Z,12.60
2022-10-23T04:04:49.536Z,11.57
2022-10-23T04:07:51.976Z,14.70
2022-10-23T04:10:55.829Z,14.13
2022-10-23T04:14:00.077Z,15.00
2022-10-23T04:17:02.921Z,16.65
2022-10-23T04:20:05.724Z,15.32
2022-10-23T04:23:08.586Z,16.98
2022-10-23T04:26:11.528Z,15.90
2022-10-23T04:29:14.778Z,11.02
2022-10-23T04:32:17.247Z,13.80
2022-10-23T04:35:20.430Z,15.68
2022-10-23T04:38:23.120Z,14.27
2022-10-23T04:41:26.113Z,15.40
2022-10-23T04:44:28.600Z,14.90
2022-10-23T04:47:31.415Z,15.25
2022-10-23T04:50:34.030Z,11.73
2022-10-23T04:53:41.593Z,17.50
2022-10-23T04:56:44.634Z,15.68
2022-10-23T04:59:47.684Z,13.62
2022-10-23T05:02:50.095Z,16.10
2022-10-23T05:05:54.771Z,17.05
2022-10-23T05:08:57.799Z,18.40
2022-10-23T05:12:00.727Z,14.65
2022-10-23T05:15:03.267Z,15.23
2022-10-23T05:18:14.195Z,18.58
2022-10-23T05:21:26.854Z,15.57
2022-10-23T05:24:29.700Z,15.48
2022-10-23T05:27:32.615Z,14.80
2022-10-23T05:30:35.513Z,14.20
2022-10-23T05:33:38.584Z,13.43
2022-10-23T05:36:41.468Z,16.05
2022-10-23T05:39:43.939Z,15.77
2022-10-23T05:42:47.699Z,13.25
2022-10-23T05:45:50.960Z,14.80
2022-10-23T05:48:55.015Z,12.82
2022-10-23T05:51:58.344Z,13.60
2022-10-23T05:55:01.675Z,19.17
2022-10-23T05:58:09.284Z,13.40
2022-10-23T06:01:15.534Z,15.23
2022-10-23T06:04:18.531Z,13.60
2022-10-23T06:07:29.187Z,16.45
2022-10-23T06:10:36.725Z,15.68
2022-10-23T06:13:43.219Z,15.27
2022-10-23T06:16:46.220Z,15.60
2022-10-23T06:19:49.004Z,14.65
2022-10-23T06:22:52.941Z,14.80
2022-10-23T06:25:57.441Z,16.15
2022-10-23T06:29:01.252Z,17.83
2022-10-23T06:32:04.092Z,15.50
2022-10-23T06:35:07.370Z,17.27
2022-10-23T06:38:10.586Z,12.70
2022-10-23T06:41:17.105Z,17.73
2022-10-23T06:44:20.572Z,18.73
2022-10-23T06:47:23.456Z,21.20
2022-10-23T06:50:32.174Z,13.75
2022-10-23T06:53:37.034Z,17.10
2022-10-23T06:56:40.049Z,17.70
2022-10-23T06:59:43.584Z,17.15
2022-10-23T07:02:46.252Z,16.45
2022-10-23T07:05:49.180Z,20.33
2022-10-23T07:08:52.266Z,13.77
2022-10-23T07:11:57.135Z,14.10
2022-10-23T07:15:00.045Z,17.92
2022-10-23T07:18:03.065Z,17.20
2022-10-23T07:21:06.368Z,20.33
2022-10-23T07:24:09.036Z,19.77
2022-10-23T07:27:12.839Z,16.02
2022-10-23T07:30:16.934Z,22.08
2022-10-23T07:33:19.647Z,17.45
2022-10-23T07:36:23.007Z,17.70
2022-10-23T07:39:25.663Z,16.27
2022-10-23T07:42:28.395Z,19.85
2022-10-23T07:45:30.954Z,19.25
2022-10-23T07:48:34.830Z,18.75
2022-10-23T07:51:37.672Z,19.90
2022-10-23T07:54:40.581Z,18.42
2022-10-23T07:57:45.049Z,16.92
2022-10-23T08:00:58.497Z,16.23
2022-10-23T08:04:01.526Z,17.02
2022-10-23T08:07:04.459Z,17.50
2022-10-23T08:10:07.854Z,16.90
2022-10-23T08:13:13.218Z,14.27
2022-10-23T08:16:17.642Z,17.80
2022-10-23T08:19:21.414Z,17.58
2022-10-23T08:22:24.831Z,17.48
2022-10-23T08:25:27.314Z,17.20
2022-10-23T08:28:30.567Z,16.87
2022-10-23T08:31:33.066Z,17.48
2022-10-23T08:34:37.944Z,17.20
2022-10-23T08:37:40.690Z,18.00
2022-10-23T08:40:46.697Z,16.75
2022-10-23T08:44:00.442Z,17.70
2022-10-23T08:47:13.628Z,14.05
2022-10-23T08:50:34.803Z,14.52
2022-10-23T08:53:52.743Z,13.98
2022-10-23T08:57:03.620Z,14.93
2022-10-23T09:00:09.166Z,13.75
2022-10-23T09:03:13.206Z,15.02
2022-10-23T09:06:45.066Z,13.88
2022-10-23T09:10:03.431Z,13.40
2022-10-23T09:13:21.388Z,14.27
2022-10-23T09:16:42.685Z,16.23
2022-10-23T09:19:46.373Z,11.57
2022-10-23T09:22:53.074Z,12.32
2022-10-23T09:25:56.993Z,11.27
2022-10-23T09:29:15.259Z,10.82
2022-10-23T09:32:18.735Z,10.68
2022-10-23T09:35:26.731Z,10.75
2022-10-23T09:38:42.648Z,10.93
2022-10-23T09:41:45.743Z,10.25
2022-10-23T09:44:50.804Z,9.80
2022-10-23T09:48:11.047Z,11.85
2022-10-23T09:51:20.508Z,9.50
2022-10-23T09:54:25.722Z,9.98
2022-10-23T09:57:42.677Z,10.25
2022-10-23T10:00:52.278Z,10.18
2022-10-23T10:04:10.395Z,10.90
2022-10-23T10:07:22.784Z,10.63
2022-10-23T10:10:33.750Z,10.35
2022-10-23T10:13:45.109Z,10.00
2022-10-23T10:17:11.624Z,10.18
2022-10-23T10:20:17.299Z,10.13
2022-10-23T10:23:45.396Z,10.10
2022-10-23T10:27:00.401Z,9.20
2022-10-23T10:30:13.421Z,9.23
2022-10-23T10:33:24.915Z,9.93
2022-10-23T10:36:51.471Z,9.43
2022-10-23T10:40:17.583Z,10.90
2022-10-23T10:43:45.882Z,12.77
2022-10-23T10:50:15.244Z,11.52
2022-10-23T10:53:31.276Z,12.50
2022-10-23T10:56:38.352Z,14.70
2022-10-23T10:59:46.423Z,16.02
2022-10-23T11:03:00.130Z,15.00
2022-10-23T11:06:06.130Z,14.32
2022-10-23T11:09:29.427Z,14.40
2022-10-23T11:12:33.574Z,13.55
2022-10-23T11:15:42.899Z,15.38
2022-10-23T11:19:14.090Z,18.05
2022-10-23T11:22:26.902Z,16.10
2022-10-23T11:26:18.844Z,18.87
2022-10-23T11:29:42.877Z,17.42
2022-10-23T11:32:55.264Z,17.65
2022-10-23T11:36:06.967Z,19.60
2022-10-23T11:39:29.772Z,17.77
2022-10-23T11:42:46.841Z,17.33
2022-10-23T11:45:49.584Z,18.33
2022-10-23T11:48:55.265Z,18.48
2022-10-23T11:52:04.150Z,16.95
2022-10-23T11:55:22.976Z,16.62
2022-10-23T11:58:47.788Z,16.83
2022-10-23T12:01:52.958Z,14.45
2022-10-23T12:04:56.186Z,16.25
2022-10-23T12:08:02.301Z,14.10
2022-10-23T12:11:05.349Z,11.07
2022-10-23T12:14:27.675Z,10.75
2022-10-23T12:17:35.958Z,10.73
2022-10-23T12:20:56.240Z,10.52
2022-10-23T12:24:12.581Z,11.07
2022-10-23T12:27:30.582Z,11.68
2022-10-23T12:30:52.713Z,11.88
2022-10-23T12:34:23.695Z,13.10
2022-10-23T12:37:45.092Z,15.40
2022-10-23T12:41:00.761Z,16.00
2022-10-23T12:44:05.573Z,15.57
2022-10-23T12:47:18.877Z,17.05
2022-10-23T12:50:39.992Z,15.07
2022-10-23T12:53:48.825Z,15.75
2022-10-23T12:56:53.084Z,14.48
2022-10-23T13:00:00.216Z,11.55
2022-10-23T13:03:04.631Z,15.33
2022-10-23T13:06:07.525Z,9.68
2022-10-23T13:09:38.614Z,10.43
2022-10-23T13:12:50.706Z,10.05
2022-10-23T13:15:53.614Z,11.75
2022-10-23T13:18:56.257Z,11.45
2022-10-23T13:21:59.907Z,10.35
2022-10-23T13:25:02.586Z,11.05
2022-10-23T13:28:08.391Z,11.12
2022-10-23T13:31:11.591Z,10.07
2022-10-23T13:34:27.414Z,8.98
2022-10-23T13:37:30.599Z,9.30
2022-10-23T13:40:33.965Z,10.27
2022-10-23T13:43:36.752Z,10.35
2022-10-23T13:46:39.935Z,9.10
2022-10-23T13:49:42.816Z,10.02
2022-10-23T13:52:46.440Z,9.98
2022-10-23T13:55:54.952Z,9.82
2022-10-23T14:14:09.145Z,8.52
2022-10-23T14:17:12.359Z,9.02
2022-10-23T14:20:17.271Z,9.18
2022-10-23T14:23:21.358Z,8.80
2022-10-23T14:26:30.072Z,10.02
2022-10-23T14:29:33.041Z,9.30
2022-10-23T14:32:35.639Z,7.85
2022-10-23T14:35:43.408Z,9.05
2022-10-23T14:38:46.076Z,9.53
2022-10-23T14:41:49.137Z,9.25
2022-10-23T14:44:52.159Z,8.80
2022-10-23T14:47:55.652Z,8.30
2022-10-23T14:50:58.272Z,7.15
2022-10-23T14:54:03.727Z,11.10
2022-10-23T14:57:06.535Z,9.77
2022-10-23T15:00:11.437Z,9.18
2022-10-23T15:03:15.763Z,9.73
2022-10-23T15:06:18.843Z,9.35
2022-10-23T15:09:21.732Z,9.90
2022-10-23T15:12:24.744Z,9.73
2022-10-23T15:15:27.388Z,9.95
2022-10-23T15:18:30.579Z,9.38
2022-10-23T15:21:33.702Z,9.13
2022-10-23T15:24:37.739Z,11.00
2022-10-23T15:27:40.521Z,10.20
2022-10-23T15:30:45.600Z,10.88
2022-10-23T15:33:49.861Z,9.40
2022-10-23T15:36:54.623Z,9.75
2022-10-23T15:39:59.738Z,9.40
2022-10-23T15:46:08.066Z,9.52
2022-10-23T15:49:11.964Z,10.60
2022-10-23T15:52:15.757Z,8.98
2022-10-23T15:55:19.682Z,9.13
2022-10-23T15:58:23.012Z,10.90
2022-10-23T16:01:26.350Z,10.75
2022-10-23T16:04:29.968Z,9.93
2022-10-23T16:07:32.633Z,10.88
2022-10-23T16:10:42.546Z,9.75
2022-10-23T16:13:46.286Z,10.93
2022-10-23T16:16:50.361Z,10.77
2022-10-23T16:19:53.271Z,8.55
2022-10-23T16:22:56.342Z,10.07
2022-10-23T16:26:05.011Z,11.95
2022-10-23T16:29:09.686Z,9.93
2022-10-23T16:32:13.364Z,11.88
2022-10-23T16:35:16.433Z,11.73
2022-10-23T16:38:20.713Z,11.00
2022-10-23T16:41:24.120Z,10.82
2022-10-23T16:44:27.273Z,8.02
2022-10-23T16:47:31.356Z,6.20
2022-10-23T16:50:34.037Z,6.20
2022-10-23T16:53:37.639Z,6.70
2022-10-23T16:56:41.441Z,5.00
2022-10-23T16:59:44.374Z,5.82
2022-10-23T17:02:47.417Z,5.20
2022-10-23T17:05:50.680Z,5.60
2022-10-23T17:08:54.907Z,5.10
2022-10-23T17:11:59.416Z,4.22
2022-10-23T17:15:02.152Z,4.65
2022-10-23T17:18:05.284Z,4.78
2022-10-23T17:21:08.473Z,4.32
2022-10-23T17:24:12.937Z,5.03
2022-10-23T17:27:15.851Z,4.10
2022-10-23T17:30:20.184Z,4.97
2022-10-23T17:33:23.088Z,4.45
2022-10-23T17:36:27.113Z,4.20
2022-10-23T17:39:31.338Z,5.57
2022-10-23T17:42:34.380Z,4.32
2022-10-23T17:45:39.530Z,3.83
2022-10-23T17:48:45.779Z,4.30
2022-10-23T17:51:54.064Z,4.68
2022-10-23T17:57:59.619Z,5.85
2022-10-23T18:01:08.522Z,4.12
2022-10-23T18:04:16.546Z,4.72
2022-10-23T18:07:19.937Z,3.60
2022-10-23T18:10:24.368Z,4.10
2022-10-23T18:13:27.232Z,3.83
2022-10-23T18:16:30.540Z,4.12
2022-10-23T18:19:33.712Z,4.07
2022-10-23T18:22:37.184Z,4.57
2022-10-23T18:25:42.928Z,4.25
2022-10-23T18:28:47.616Z,4.30
2022-10-23T18:31:51.403Z,3.58
2022-10-23T18:34:54.783Z,4.18
2022-10-23T18:37:58.142Z,4.68
2022-10-23T18:41:01.474Z,4.40
2022-10-23T18:44:05.121Z,4.22
2022-10-23T18:47:08.493Z,4.70
2022-10-23T18:50:11.805Z,4.60
2022-10-23T18:53:15.214Z,4.60
2022-10-23T18:56:23.820Z,4.72
2022-10-23T18:59:27.181Z,4.68
2022-10-23T19:02:30.248Z,4.95
2022-10-23T19:05:33.399Z,5.82
2022-10-23T19:08:38.544Z,5.87
2022-10-23T19:11:42.424Z,5.82
2022-10-23T19:14:45.988Z,5.72
2022-10-23T19:17:55.470Z,6.47
2022-10-23T19:20:59.700Z,7.57
2022-10-23T19:24:09.151Z,5.65
2022-10-23T19:27:12.159Z,5.97
2022-10-23T19:30:22.575Z,6.32
2022-10-23T19:33:25.732Z,7.55
2022-10-23T19:36:28.728Z,6.60
2022-10-23T19:39:31.780Z,6.53
2022-10-23T19:42:38.145Z,6.90
2022-10-23T19:45:41.872Z,7.65
2022-10-23T19:48:46.756Z,7.28
2022-10-23T19:51:51.463Z,5.93
2022-10-23T19:54:54.761Z,6.53
2022-10-23T19:57:57.845Z,6.28
2022-10-23T20:01:09.513Z,7.50
2022-10-23T20:04:12.579Z,6.35
2022-10-23T20:07:15.726Z,5.93
2022-10-23T20:10:18.945Z,9.70
2022-10-23T20:13:21.963Z,5.45
2022-10-23T20:16:31.760Z,8.15
2022-10-23T20:19:35.057Z,7.22
2022-10-23T20:22:40.590Z,7.65
2022-10-23T20:25:45.821Z,7.47
2022-10-23T20:28:53.039Z,7.05
2022-10-23T20:31:55.912Z,7.35
2022-10-23T20:34:59.603Z,7.72
2022-10-23T20:38:03.418Z,8.32
2022-10-23T20:41:06.987Z,7.60
2022-10-23T20:44:12.850Z,7.05
2022-10-23T20:47:15.827Z,8.02
2022-10-23T20:50:19.319Z,7.90
2022-10-23T20:53:22.245Z,8.30
2022-10-23T20:56:33.364Z,7.40
2022-10-23T20:59:36.177Z,8.30
2022-10-23T21:02:38.692Z,8.07
2022-10-23T21:05:41.459Z,7.65
2022-10-23T21:08:44.491Z,7.93
2022-10-23T21:11:47.375Z,6.70
2022-10-23T21:14:49.834Z,8.38
2022-10-23T21:17:52.690Z,7.40
2022-10-23T21:20:55.227Z,9.00
2022-10-23T21:24:00.903Z,8.52
2022-10-23T21:27:03.396Z,9.25
2022-10-23T21:30:06.795Z,10.32
2022-10-23T21:33:09.258Z,9.20
2022-10-23T21:36:17.226Z,7.72
2022-10-23T21:39:19.667Z,9.48
2022-10-23T21:42:22.396Z,8.57
2022-10-23T21:45:24.830Z,8.35
2022-10-23T21:48:28.407Z,8.07
2022-10-23T21:51:35.612Z,9.07
2022-10-23T21:54:38.300Z,9.55
2022-10-23T21:57:40.746Z,8.02
2022-10-23T22:00:43.465Z,9.45
2022-10-23T22:03:46.322Z,8.80
2022-10-23T22:06:49.878Z,8.45
2022-10-23T22:09:52.659Z,9.45
2022-10-23T22:12:55.122Z,8.25
2022-10-23T22:16:02.352Z,9.70
2022-10-23T22:19:04.915Z,11.75
2022-10-23T22:22:07.587Z,11.93
2022-10-23T22:25:10.132Z,11.57
2022-10-23T22:28:12.847Z,9.80
2022-10-23T22:31:16.994Z,10.80
2022-10-23T22:37:45.650Z,10.27
2022-10-23T22:43:57.044Z,11.00
2022-10-23T22:46:59.825Z,10.25
2022-10-23T22:50:02.356Z,10.43
2022-10-23T22:53:05.024Z,10.93
2022-10-23T22:56:09.246Z,11.40
2022-10-23T22:59:12.540Z,12.35
2022-10-23T23:02:15.105Z,11.23
2022-10-23T23:05:17.872Z,10.48
2022-10-23T23:08:20.339Z,11.55
2022-10-23T23:11:23.188Z,12.50
2022-10-23T23:14:25.753Z,11.82
2022-10-23T23:17:28.510Z,12.93
2022-10-23T23:20:30.942Z,13.82
2022-10-23T23:23:33.629Z,12.02
2022-10-23T23:26:36.080Z,12.90
2022-10-23T23:29:39.563Z,13.32
2022-10-23T23:32:42.191Z,12.65
2022-10-23T23:35:48.212Z,12.73
2022-10-23T23:38:51.306Z,13.85
2022-10-23T23:41:54.113Z,12.98
2022-10-23T23:45:02.786Z,14.95
2022-10-23T23:48:12.829Z,13.35
2022-10-23T23:51:21.452Z,13.07
2022-10-23T23:54:24.357Z,13.27
2022-10-23T23:57:27.221Z,16.77
